createdAt,value
2019-02-06T00:02:24.961Z,48.45
2019-02-06T00:04:52.596Z,48.62
2019-02-06T00:07:19.974Z,48.49
2019-02-06T00:09:47.341Z,48.65
2019-02-06T00:12:14.729Z,48.02
2019-02-06T00:14:42.357Z,47.60
2019-02-06T00:17:09.527Z,47.48
2019-02-06T00:19:37.042Z,47.65
2019-02-06T00:22:06.553Z,48.08
2019-02-06T00:24:33.891Z,48.74
2019-02-06T00:27:01.208Z,48.60
2019-02-06T00:29:28.389Z,48.63
2019-02-06T00:31:55.985Z,48.63
2019-02-06T00:34:23.533Z,48.79
2019-02-06T00:36:50.809Z,48.44
2019-02-06T00:39:18.090Z,48.39
2019-02-06T00:41:45.401Z,48.50
2019-02-06T00:44:12.628Z,48.49
2019-02-06T00:46:40.007Z,48.31
2019-02-06T00:49:07.630Z,48.48
2019-02-06T00:51:34.993Z,48.51
2019-02-06T00:54:02.278Z,48.48
2019-02-06T00:56:29.631Z,48.64
2019-02-06T00:58:56.957Z,48.67
2019-02-06T01:01:24.253Z,48.77
2019-02-06T01:03:51.421Z,49.27
2019-02-06T01:06:18.966Z,49.25
2019-02-06T01:08:46.224Z,49.14
2019-02-06T01:11:13.388Z,49.47
2019-02-06T01:13:40.724Z,49.62
2019-02-06T01:16:07.915Z,49.87
2019-02-06T01:18:35.079Z,49.88
2019-02-06T01:21:02.325Z,50.32
2019-02-06T01:23:29.552Z,50.30
2019-02-06T01:25:56.845Z,50.18
2019-02-06T01:28:24.023Z,50.08
2019-02-06T01:30:58.035Z,50.11
2019-02-06T01:33:25.252Z,49.92
2019-02-06T01:35:52.451Z,49.96
2019-02-06T01:38:19.707Z,49.82
2019-02-06T01:40:46.895Z,49.73
2019-02-06T01:43:14.194Z,49.89
2019-02-06T01:45:41.562Z,49.40
2019-02-06T01:48:08.890Z,49.43
2019-02-06T01:50:36.167Z,49.74
2019-02-06T01:53:03.350Z,49.63
2019-02-06T01:55:30.639Z,49.88
2019-02-06T01:57:57.863Z,49.80
2019-02-06T02:00:25.372Z,49.60
2019-02-06T02:02:53.215Z,49.89
2019-02-06T02:05:20.497Z,49.53
2019-02-06T02:07:48.161Z,49.46
2019-02-06T02:10:15.422Z,49.51
2019-02-06T02:12:42.638Z,49.50
2019-02-06T02:15:10.779Z,50.13
2019-02-06T02:17:38.061Z,50.93
2019-02-06T02:20:08.353Z,50.71
2019-02-06T02:22:35.526Z,51.12
2019-02-06T02:25:03.482Z,51.03
2019-02-06T02:27:30.689Z,51.04
2019-02-06T02:29:57.893Z,51.16
2019-02-06T02:32:25.123Z,51.16
2019-02-06T02:34:52.379Z,51.11
2019-02-06T02:37:19.539Z,51.16
2019-02-06T02:39:46.751Z,50.96
2019-02-06T02:42:13.952Z,50.80
2019-02-06T02:44:41.185Z,50.73
2019-02-06T02:47:08.525Z,50.24
2019-02-06T02:49:35.756Z,50.49
2019-02-06T02:52:03.041Z,50.40
2019-02-06T02:54:30.338Z,50.15
2019-02-06T02:56:57.948Z,50.14
2019-02-06T02:59:25.087Z,49.92
2019-02-06T03:01:59.745Z,50.53
2019-02-06T03:04:43.234Z,50.61
2019-02-06T03:07:10.405Z,50.91
2019-02-06T03:09:37.845Z,50.66
2019-02-06T03:12:05.013Z,51.01
2019-02-06T03:14:32.359Z,50.55
2019-02-06T03:17:03.025Z,50.44
2019-02-06T03:19:28.755Z,50.17
2019-02-06T03:21:56.003Z,50.48
2019-02-06T03:24:23.234Z,51.43
2019-02-06T03:26:50.874Z,51.10
2019-02-06T03:29:18.048Z,50.94
2019-02-06T03:31:45.230Z,51.20
2019-02-06T03:34:12.437Z,51.14
2019-02-06T03:36:40.946Z,50.93
2019-02-06T03:39:08.770Z,51.09
2019-02-06T03:41:36.055Z,50.75
2019-02-06T03:44:03.844Z,51.02
2019-02-06T03:46:31.015Z,50.96
2019-02-06T03:48:58.590Z,50.97
2019-02-06T03:51:25.857Z,50.75
2019-02-06T03:53:53.064Z,50.76
2019-02-06T03:56:20.241Z,50.81
2019-02-06T03:58:47.551Z,50.85
2019-02-06T04:01:14.740Z,50.86
2019-02-06T04:03:42.430Z,51.08
2019-02-06T04:06:09.643Z,50.93
2019-02-06T04:08:36.834Z,50.71
2019-02-06T04:11:04.011Z,50.54
2019-02-06T04:13:31.321Z,50.62
2019-02-06T04:15:58.713Z,50.42
2019-02-06T04:18:25.953Z,50.53
2019-02-06T04:20:53.147Z,51.00
2019-02-06T04:23:20.330Z,51.02
2019-02-06T04:25:47.590Z,51.23
2019-02-06T04:28:14.800Z,50.77
2019-02-06T04:30:42.120Z,50.37
2019-02-06T04:33:09.338Z,51.30
2019-02-06T04:35:36.685Z,50.49
2019-02-06T04:38:03.928Z,50.33
2019-02-06T04:40:31.757Z,50.02
2019-02-06T04:42:58.944Z,50.12
2019-02-06T04:45:26.160Z,49.89
2019-02-06T04:47:53.380Z,49.79
2019-02-06T04:50:20.637Z,49.68
2019-02-06T04:52:47.824Z,49.64
2019-02-06T04:55:15.124Z,49.68
2019-02-06T04:57:42.388Z,49.64
2019-02-06T05:00:18.325Z,49.63
2019-02-06T05:02:45.558Z,49.48
2019-02-06T05:05:12.783Z,49.40
2019-02-06T05:07:39.965Z,49.21
2019-02-06T05:10:09.029Z,49.13
2019-02-06T05:12:36.199Z,49.00
2019-02-06T05:15:03.865Z,48.99
2019-02-06T05:17:31.211Z,49.08
2019-02-06T05:19:58.372Z,48.93
2019-02-06T05:22:25.571Z,48.89
2019-02-06T05:24:52.781Z,50.91
2019-02-06T05:27:20.223Z,49.39
2019-02-06T05:29:47.435Z,49.87
2019-02-06T05:32:14.609Z,48.99
2019-02-06T05:34:42.007Z,49.18
2019-02-06T05:37:09.294Z,48.77
2019-02-06T05:39:38.003Z,48.73
2019-02-06T05:42:05.263Z,49.63
2019-02-06T05:44:32.647Z,50.24
2019-02-06T05:46:59.986Z,50.42
2019-02-06T05:49:27.274Z,49.95
2019-02-06T05:51:54.745Z,49.33
2019-02-06T05:54:21.952Z,48.79
2019-02-06T05:56:49.142Z,48.43
2019-02-06T05:59:16.358Z,48.20
2019-02-06T06:01:43.519Z,48.02
2019-02-06T06:04:10.775Z,47.91
2019-02-06T06:06:37.938Z,47.77
2019-02-06T06:09:07.031Z,47.67
2019-02-06T06:11:34.438Z,47.56
2019-02-06T06:14:01.646Z,47.93
2019-02-06T06:16:28.854Z,47.84
2019-02-06T06:18:56.150Z,47.68
2019-02-06T06:21:23.348Z,47.54
2019-02-06T06:23:50.539Z,48.81
2019-02-06T06:26:17.717Z,48.88
2019-02-06T06:28:44.959Z,48.68
2019-02-06T06:31:12.560Z,48.76
2019-02-06T06:33:39.759Z,48.99
2019-02-06T06:36:06.911Z,48.63
2019-02-06T06:38:34.228Z,48.57
2019-02-06T06:41:01.468Z,48.65
2019-02-06T06:43:28.899Z,48.77
2019-02-06T06:45:56.075Z,48.73
2019-02-06T06:48:23.314Z,48.73
2019-02-06T06:50:50.770Z,48.53
2019-02-06T06:53:18.572Z,48.79
2019-02-06T06:55:51.564Z,49.90
2019-02-06T06:58:19.012Z,49.47
2019-02-06T07:00:46.373Z,49.68
2019-02-06T07:03:13.735Z,49.58
2019-02-06T07:05:40.962Z,49.95
2019-02-06T07:08:11.339Z,49.46
2019-02-06T07:10:37.268Z,48.98
2019-02-06T07:13:04.474Z,48.72
2019-02-06T07:15:33.316Z,48.64
2019-02-06T07:18:00.539Z,49.43
2019-02-06T07:20:27.690Z,48.78
2019-02-06T07:22:55.013Z,48.77
2019-02-06T07:25:22.156Z,49.21
2019-02-06T07:27:49.361Z,49.19
2019-02-06T07:30:19.320Z,48.80
2019-02-06T07:32:46.487Z,48.53
2019-02-06T07:35:13.781Z,48.49
2019-02-06T07:37:41.196Z,48.49
2019-02-06T07:40:08.813Z,48.36
2019-02-06T07:42:36.597Z,48.32
2019-02-06T07:45:04.770Z,48.29
2019-02-06T07:47:31.951Z,48.28
2019-02-06T07:49:59.217Z,48.28
2019-02-06T07:52:26.442Z,48.29
2019-02-06T07:54:53.678Z,48.29
2019-02-06T07:57:20.932Z,48.24
2019-02-06T07:59:48.547Z,48.20
2019-02-06T08:02:15.789Z,48.12
2019-02-06T08:04:43.023Z,48.09
2019-02-06T08:07:10.263Z,48.04
2019-02-06T08:09:37.449Z,48.00
2019-02-06T08:12:04.678Z,47.85
2019-02-06T08:14:31.889Z,47.78
2019-02-06T08:16:59.202Z,47.71
2019-02-06T08:19:26.672Z,47.68
2019-02-06T08:21:54.072Z,47.65
2019-02-06T08:24:21.290Z,47.59
2019-02-06T08:26:48.554Z,47.54
2019-02-06T08:29:15.727Z,47.49
2019-02-06T08:31:42.907Z,47.41
2019-02-06T08:34:10.162Z,47.38
2019-02-06T08:36:37.764Z,47.41
2019-02-06T08:39:07.314Z,47.27
2019-02-06T08:41:34.503Z,47.24
2019-02-06T08:44:02.094Z,47.24
2019-02-06T08:46:29.335Z,47.24
2019-02-06T08:48:56.619Z,47.26
2019-02-06T08:51:23.836Z,47.23
2019-02-06T08:53:51.022Z,47.16
2019-02-06T08:56:18.238Z,47.12
2019-02-06T08:58:45.424Z,47.01
2019-02-06T09:01:12.639Z,46.92
2019-02-06T09:03:39.813Z,46.83
2019-02-06T09:06:07.054Z,46.87
2019-02-06T09:08:34.269Z,46.80
2019-02-06T09:11:01.443Z,46.82
2019-02-06T09:13:29.212Z,46.78
2019-02-06T09:15:56.500Z,46.69
2019-02-06T09:18:23.732Z,46.63
2019-02-06T09:20:52.840Z,46.51
2019-02-06T09:23:20.038Z,46.37
2019-02-06T09:25:47.251Z,46.33
2019-02-06T09:28:14.481Z,46.30
2019-02-06T09:30:41.651Z,46.23
2019-02-06T09:33:09.007Z,46.27
2019-02-06T09:35:36.205Z,46.19
2019-02-06T09:38:03.398Z,46.16
2019-02-06T09:40:30.750Z,46.22
2019-02-06T09:42:58.027Z,46.25
2019-02-06T09:45:25.250Z,46.25
2019-02-06T09:47:52.428Z,46.21
2019-02-06T09:50:31.257Z,46.09
2019-02-06T09:52:58.497Z,46.01
2019-02-06T09:55:25.724Z,46.01
2019-02-06T09:57:52.910Z,45.99
2019-02-06T10:00:22.490Z,45.96
2019-02-06T10:02:49.686Z,46.00
2019-02-06T10:05:17.342Z,45.98
2019-02-06T10:07:46.261Z,45.97
2019-02-06T10:10:15.934Z,45.90
2019-02-06T10:12:43.224Z,45.92
2019-02-06T10:15:12.598Z,45.92
2019-02-06T10:17:39.771Z,45.92
2019-02-06T10:20:10.505Z,45.88
2019-02-06T10:22:38.054Z,45.84
2019-02-06T10:25:05.325Z,45.78
2019-02-06T10:27:32.581Z,45.78
2019-02-06T10:29:59.799Z,45.73
2019-02-06T10:32:26.950Z,45.71
2019-02-06T10:34:54.238Z,45.72
2019-02-06T10:37:21.438Z,45.72
2019-02-06T10:39:49.006Z,45.66
2019-02-06T10:42:16.219Z,45.59
2019-02-06T10:44:43.388Z,45.48
2019-02-06T10:47:10.611Z,45.51
2019-02-06T10:49:37.793Z,45.46
2019-02-06T10:52:05.014Z,45.37
2019-02-06T10:54:32.208Z,45.31
2019-02-06T10:56:59.614Z,45.24
2019-02-06T10:59:27.022Z,45.23
2019-02-06T11:01:54.245Z,45.24
2019-02-06T11:04:21.409Z,45.27
2019-02-06T11:06:48.651Z,45.25
2019-02-06T11:09:15.836Z,45.30
2019-02-06T11:11:42.986Z,45.30
2019-02-06T11:14:10.305Z,45.32
2019-02-06T11:16:37.495Z,45.38
2019-02-06T11:19:04.716Z,45.35
2019-02-06T11:21:31.927Z,45.30
2019-02-06T11:24:01.888Z,45.26
2019-02-06T11:26:29.195Z,45.27
2019-02-06T11:28:57.504Z,45.58
2019-02-06T11:31:25.273Z,45.50
2019-02-06T11:33:53.762Z,45.85
2019-02-06T11:36:24.410Z,45.91
2019-02-06T11:38:54.800Z,46.30
2019-02-06T11:41:22.244Z,46.40
2019-02-06T11:43:50.618Z,46.64
2019-02-06T11:46:17.918Z,46.72
2019-02-06T11:48:47.401Z,46.77
2019-02-06T11:51:14.996Z,46.65
2019-02-06T11:53:42.860Z,46.72
2019-02-06T11:56:10.362Z,46.64
2019-02-06T11:58:38.936Z,46.64
2019-02-06T12:01:20.480Z,46.66
2019-02-06T12:03:47.776Z,46.94
2019-02-06T12:06:15.094Z,46.97
2019-02-06T12:08:45.986Z,47.04
2019-02-06T12:11:13.460Z,47.15
2019-02-06T12:13:40.715Z,47.27
2019-02-06T12:16:08.050Z,47.21
2019-02-06T12:18:35.377Z,47.28
2019-02-06T12:21:02.698Z,47.30
2019-02-06T12:23:32.235Z,47.20
2019-02-06T12:25:59.354Z,46.66
2019-02-06T12:28:26.551Z,46.72
2019-02-06T12:30:56.149Z,46.66
2019-02-06T12:33:23.059Z,46.50
2019-02-06T12:35:50.352Z,46.35
2019-02-06T12:38:17.550Z,46.43
2019-02-06T12:40:45.283Z,46.36
2019-02-06T12:43:12.463Z,46.31
2019-02-06T12:45:40.326Z,46.94
2019-02-06T12:48:07.649Z,46.74
2019-02-06T12:50:34.818Z,46.60
2019-02-06T12:53:02.057Z,46.50
2019-02-06T12:55:31.092Z,46.40
2019-02-06T12:57:58.272Z,46.50
2019-02-06T13:00:27.061Z,46.38
2019-02-06T13:02:57.464Z,46.29
2019-02-06T13:05:23.712Z,46.53
2019-02-06T13:07:50.998Z,46.58
2019-02-06T13:10:18.305Z,46.33
2019-02-06T13:12:45.477Z,46.13
2019-02-06T13:15:13.010Z,46.02
2019-02-06T13:17:40.337Z,45.97
2019-02-06T13:20:11.416Z,45.84
2019-02-06T13:22:38.649Z,45.77
2019-02-06T13:25:06.836Z,45.85
2019-02-06T13:27:34.237Z,45.81
2019-02-06T13:30:01.478Z,45.72
2019-02-06T13:32:28.761Z,45.64
2019-02-06T13:34:55.943Z,45.72
2019-02-06T13:37:23.585Z,45.65
2019-02-06T13:39:50.762Z,45.69
2019-02-06T13:42:17.937Z,45.65
2019-02-06T13:44:45.167Z,45.56
2019-02-06T13:47:12.397Z,45.62
2019-02-06T13:49:39.627Z,45.66
2019-02-06T13:52:06.790Z,45.72
2019-02-06T13:54:34.155Z,45.70
2019-02-06T13:57:02.262Z,45.67
2019-02-06T13:59:29.435Z,45.66
2019-02-06T14:01:56.753Z,45.62
2019-02-06T14:04:24.000Z,45.57
2019-02-06T14:06:51.148Z,45.49
2019-02-06T14:09:22.683Z,45.55
2019-02-06T14:11:47.451Z,45.53
2019-02-06T14:14:14.621Z,45.49
2019-02-06T14:16:42.024Z,45.47
2019-02-06T14:19:09.191Z,45.48
2019-02-06T14:21:36.399Z,45.53
2019-02-06T14:24:25.541Z,45.54
2019-02-06T14:27:06.434Z,45.53
2019-02-06T14:30:17.300Z,45.55
2019-02-06T14:33:13.441Z,45.54
2019-02-06T14:36:33.132Z,45.49
2019-02-06T14:39:54.695Z,45.34
2019-02-06T14:43:02.292Z,45.34
2019-02-06T14:46:17.186Z,45.48
2019-02-06T14:49:22.519Z,45.37
2019-02-06T14:52:40.596Z,45.38
2019-02-06T14:55:20.513Z,45.32
2019-02-06T14:58:46.200Z,45.35
2019-02-06T15:01:51.992Z,45.28
2019-02-06T15:05:06.079Z,45.18
2019-02-06T15:07:55.138Z,45.18
2019-02-06T15:11:19.425Z,45.35
2019-02-06T15:14:22.434Z,45.36
2019-02-06T15:17:26.640Z,45.39
2019-02-06T15:20:22.315Z,45.54
2019-02-06T15:23:33.038Z,45.54
2019-02-06T15:26:29.650Z,45.39
2019-02-06T15:29:22.080Z,45.43
2019-02-06T15:32:12.555Z,45.37
2019-02-06T15:35:20.887Z,45.37
2019-02-06T15:38:28.794Z,45.33
2019-02-06T15:41:33.766Z,45.59
2019-02-06T15:44:16.891Z,45.69
2019-02-06T15:47:10.392Z,45.66
2019-02-06T15:49:46.800Z,45.70
2019-02-06T15:52:30.531Z,45.72
2019-02-06T15:55:42.535Z,45.64
2019-02-06T15:58:47.365Z,45.64
2019-02-06T16:01:57.864Z,45.64
2019-02-06T16:05:41.262Z,45.67
2019-02-06T16:08:55.593Z,45.62
2019-02-06T16:12:09.100Z,45.61
2019-02-06T16:15:14.569Z,45.51
2019-02-06T16:18:05.149Z,45.54
2019-02-06T16:21:16.095Z,45.46
2019-02-06T16:24:33.763Z,45.42
2019-02-06T16:27:36.823Z,45.43
2019-02-06T16:30:44.477Z,45.42
2019-02-06T16:33:49.763Z,45.32
2019-02-06T16:37:04.094Z,45.30
2019-02-06T16:40:34.429Z,45.31
2019-02-06T16:43:23.970Z,45.31
2019-02-06T16:46:31.562Z,45.38
2019-02-06T16:49:28.070Z,45.30
2019-02-06T16:52:46.046Z,45.32
2019-02-06T16:55:50.766Z,45.67
2019-02-06T16:58:26.007Z,45.48
2019-02-06T17:01:53.243Z,45.42
2019-02-06T17:04:50.248Z,45.38
2019-02-06T17:07:26.868Z,45.31
2019-02-06T17:10:19.977Z,45.32
2019-02-06T17:13:46.232Z,45.44
2019-02-06T17:16:51.324Z,45.54
2019-02-06T17:20:06.492Z,45.56
2019-02-06T17:23:10.719Z,45.64
2019-02-06T17:26:13.991Z,45.62
2019-02-06T17:29:07.134Z,45.58
2019-02-06T17:32:01.439Z,45.50
2019-02-06T17:34:37.225Z,45.51
2019-02-06T17:37:51.961Z,45.49
2019-02-06T17:41:01.802Z,45.49
2019-02-06T17:44:37.954Z,45.46
2019-02-06T17:47:48.581Z,45.46
2019-02-06T17:50:34.629Z,45.52
2019-02-06T17:53:25.036Z,45.47
2019-02-06T17:55:52.168Z,45.46
2019-02-06T17:58:19.437Z,45.42
2019-02-06T18:01:11.722Z,45.39
2019-02-06T18:03:45.765Z,45.36
2019-02-06T18:06:13.418Z,45.33
2019-02-06T18:08:40.714Z,45.34
2019-02-06T18:11:07.895Z,45.27
2019-02-06T18:13:35.149Z,45.24
2019-02-06T18:16:02.834Z,45.20
2019-02-06T18:18:30.074Z,45.22
2019-02-06T18:20:57.312Z,45.19
2019-02-06T18:23:24.508Z,45.15
2019-02-06T18:25:52.708Z,45.15
2019-02-06T18:28:19.895Z,45.12
2019-02-06T18:30:47.200Z,45.10
2019-02-06T18:33:14.561Z,45.09
2019-02-06T18:35:41.750Z,45.09
2019-02-06T18:38:09.259Z,45.02
2019-02-06T18:40:37.200Z,45.02
2019-02-06T18:43:04.460Z,44.95
2019-02-06T18:45:31.702Z,44.92
2019-02-06T18:48:00.761Z,44.84
2019-02-06T18:50:30.632Z,44.91
2019-02-06T18:52:57.282Z,44.91
2019-02-06T18:55:24.601Z,44.92
2019-02-06T18:57:52.329Z,44.95
2019-02-06T19:00:28.436Z,44.94
2019-02-06T19:02:55.805Z,44.97
2019-02-06T19:05:26.361Z,45.00
2019-02-06T19:07:53.797Z,44.97
2019-02-06T19:10:21.299Z,45.37
2019-02-06T19:12:50.717Z,45.76
2019-02-06T19:15:17.825Z,45.49
2019-02-06T19:17:45.583Z,45.47
2019-02-06T19:20:13.163Z,45.42
2019-02-06T19:22:40.348Z,45.62
2019-02-06T19:25:08.117Z,45.60
2019-02-06T19:27:35.470Z,45.61
2019-02-06T19:30:03.003Z,45.45
2019-02-06T19:32:30.155Z,45.57
2019-02-06T19:34:57.376Z,45.71
2019-02-06T19:37:24.745Z,45.38
2019-02-06T19:39:52.387Z,45.50
2019-02-06T19:42:19.769Z,45.79
2019-02-06T19:44:48.131Z,46.33
2019-02-06T19:47:20.440Z,46.36
2019-02-06T19:49:47.899Z,46.39
2019-02-06T19:52:15.230Z,46.46
2019-02-06T19:54:42.787Z,46.83
2019-02-06T19:57:10.017Z,46.71
2019-02-06T19:59:38.233Z,46.72
2019-02-06T20:02:05.813Z,46.62
2019-02-06T20:04:33.082Z,46.79
2019-02-06T20:07:00.276Z,46.55
2019-02-06T20:09:30.314Z,46.49
2019-02-06T20:11:56.553Z,46.28
2019-02-06T20:14:23.863Z,46.29
2019-02-06T20:16:51.076Z,46.20
2019-02-06T20:19:20.632Z,46.15
2019-02-06T20:21:47.845Z,46.04
2019-02-06T20:24:14.986Z,46.19
2019-02-06T20:26:42.206Z,46.24
2019-02-06T20:29:09.374Z,46.55
2019-02-06T20:31:36.694Z,46.47
2019-02-06T20:34:03.909Z,46.58
2019-02-06T20:36:31.178Z,46.43
2019-02-06T20:38:58.516Z,46.56
2019-02-06T20:41:25.937Z,46.68
2019-02-06T20:43:53.139Z,46.65
2019-02-06T20:46:20.440Z,46.64
2019-02-06T20:48:47.606Z,46.68
2019-02-06T20:51:14.847Z,46.97
2019-02-06T20:53:42.073Z,47.03
2019-02-06T20:56:09.247Z,46.86
2019-02-06T20:58:36.559Z,46.59
2019-02-06T21:01:04.151Z,46.52
2019-02-06T21:03:31.387Z,46.76
2019-02-06T21:05:58.565Z,47.36
2019-02-06T21:08:25.771Z,47.46
2019-02-06T21:10:53.066Z,47.46
2019-02-06T21:13:20.317Z,47.65
2019-02-06T21:15:47.515Z,47.56
2019-02-06T21:18:14.660Z,47.71
2019-02-06T21:20:42.253Z,47.56
2019-02-06T21:23:09.527Z,47.31
2019-02-06T21:25:36.703Z,47.82
2019-02-06T21:28:03.932Z,48.04
2019-02-06T21:30:32.769Z,48.09
2019-02-06T21:32:59.964Z,47.92
2019-02-06T21:35:27.315Z,47.79
2019-02-06T21:37:55.010Z,48.04
2019-02-06T21:40:23.984Z,47.68
2019-02-06T21:42:51.201Z,47.62
2019-02-06T21:45:18.489Z,47.59
2019-02-06T21:47:45.943Z,47.75
2019-02-06T21:50:14.801Z,47.82
2019-02-06T21:52:42.299Z,48.06
2019-02-06T21:55:11.300Z,48.19
2019-02-06T21:57:38.491Z,48.15
2019-02-06T22:00:13.204Z,48.24
2019-02-06T22:02:40.613Z,48.25
2019-02-06T22:05:08.294Z,48.28
2019-02-06T22:07:35.515Z,48.35
2019-02-06T22:10:04.673Z,48.31
2019-02-06T22:12:32.035Z,48.30
2019-02-06T22:14:59.303Z,48.16
2019-02-06T22:17:26.623Z,48.14
2019-02-06T22:19:53.879Z,48.19
2019-02-06T22:22:21.154Z,48.18
2019-02-06T22:24:48.523Z,48.08
2019-02-06T22:27:16.111Z,48.16
2019-02-06T22:29:43.367Z,48.14
2019-02-06T22:32:10.675Z,48.16
2019-02-06T22:34:37.981Z,48.32
2019-02-06T22:37:05.278Z,48.39
2019-02-06T22:39:32.478Z,48.32
2019-02-06T22:42:00.098Z,48.38
2019-02-06T22:44:27.335Z,48.41
2019-02-06T22:46:54.761Z,48.47
2019-02-06T22:49:22.064Z,47.96
2019-02-06T22:51:49.340Z,47.81
2019-02-06T22:54:16.568Z,48.13
2019-02-06T22:56:43.784Z,47.80
2019-02-06T22:59:10.992Z,47.93
2019-02-06T23:02:07.982Z,47.97
2019-02-06T23:04:35.502Z,47.98
2019-02-06T23:07:03.045Z,48.20
2019-02-06T23:09:30.227Z,48.20
2019-02-06T23:11:57.475Z,48.05
2019-02-06T23:14:25.040Z,48.25
2019-02-06T23:16:52.726Z,48.45
2019-02-06T23:19:19.947Z,48.20
2019-02-06T23:21:47.199Z,48.13
2019-02-06T23:24:14.534Z,47.94
2019-02-06T23:26:41.708Z,47.99
2019-02-06T23:29:09.034Z,47.97
2019-02-06T23:31:36.608Z,47.85
2019-02-06T23:34:04.379Z,47.86
2019-02-06T23:36:31.648Z,47.83
2019-02-06T23:38:58.847Z,48.17
2019-02-06T23:41:26.040Z,47.88
2019-02-06T23:43:53.302Z,47.91
2019-02-06T23:46:20.713Z,47.81
2019-02-06T23:48:48.097Z,47.75
2019-02-06T23:51:15.365Z,48.22
2019-02-06T23:53:42.581Z,47.84
2019-02-06T23:56:09.799Z,48.25
2019-02-06T23:58:36.991Z,48.58
